Stations météo

réclame
Mon MeteoGroup
Lampedusa, Italie (16490): Température de l'air & dewpoint: 11.10.2017 03:00:00 - 17.10.2017 03:00:00 (CEST)Lampedusa, Italie (16490): Vitesse du vent: 11.10.2017 03:00:00 - 17.10.2017 03:00:00 (CEST)Lampedusa, Italie (16490): Direction du vent: 11.10.2017 03:00:00 - 17.10.2017 03:00:00 (CEST)Lampedusa, Italie (16490): visibility: 11.10.2017 03:00:00 - 17.10.2017 03:00:00 (CEST)
Date & Time tt [°C] td [°C] ff [km/h] ff [knt] dd vv [km]
17.10.2017 03:00:00 - - - - - -
17.10.2017 02:00:00 - - - - - -
17.10.2017 01:00:00 - - - - - -
17.10.2017 00:00:00 - - - - - -
16.10.2017 23:00:00 - - - - - -
16.10.2017 22:00:00 21,0 15,0 2 1 N 10
16.10.2017 21:00:00 21,0 15,0 2 1 NW 10
16.10.2017 20:00:00 22,0 14,0 4 2 NNW 10
16.10.2017 19:00:00 22,0 14,0 4 2 N 10
16.10.2017 18:00:00 23,0 14,0 5 3 N 10
16.10.2017 17:00:00 24,0 13,0 8 4 SW 10
16.10.2017 16:00:00 24,0 14,0 9 5 SW 10
16.10.2017 15:00:00 24,0 14,0 13 7 SW 10
16.10.2017 14:00:00 24,0 14,0 15 8 SW 10
16.10.2017 13:00:00 24,0 14,0 13 7 SW 10
16.10.2017 12:00:00 24,0 14,0 9 5 WSW 10
16.10.2017 11:00:00 23,0 14,0 8 4 WNW 10
16.10.2017 10:00:00 22,0 15,0 8 4 WNW 10
16.10.2017 09:00:00 21,0 16,0 5 3 W 10
16.10.2017 08:00:00 20,0 14,0 5 3 WNW 10
16.10.2017 07:00:00 19,0 14,0 8 4 W 10
16.10.2017 06:00:00 20,0 14,0 8 4 NW 10
16.10.2017 05:00:00 - - - - - -
16.10.2017 04:00:00 - - - - - -
16.10.2017 03:00:00 - - - - - -
16.10.2017 02:00:00 - - - - - -
16.10.2017 01:00:00 - - - - - -
16.10.2017 00:00:00 - - - - - -
15.10.2017 23:00:00 20,0 15,0 4 2 NW 10
15.10.2017 22:00:00 21,0 15,0 4 2 NNW 10
15.10.2017 21:00:00 21,0 15,0 4 2 NNW 10
15.10.2017 20:00:00 21,0 14,0 5 3 NNW 10
15.10.2017 19:00:00 21,0 14,0 8 4 N 10
15.10.2017 18:00:00 22,0 15,0 9 5 N 10
15.10.2017 17:00:00 23,0 15,0 9 5 NNE 10
15.10.2017 16:00:00 23,0 15,0 9 5 NNE 10
15.10.2017 15:00:00 24,0 15,0 4 2 SSE 10
15.10.2017 14:00:00 24,0 15,0 5 3 - 10
15.10.2017 13:00:00 23,0 15,0 5 3 E 10
15.10.2017 12:00:00 23,0 15,0 8 4 ENE 10
15.10.2017 11:00:00 22,0 15,0 8 4 ENE 10
15.10.2017 10:00:00 22,0 15,0 5 3 NE 10
15.10.2017 09:00:00 21,0 15,0 5 3 - 10
15.10.2017 08:00:00 20,0 15,0 4 2 NNW 10
15.10.2017 07:00:00 20,0 15,0 5 3 NNW 10
15.10.2017 06:00:00 20,0 15,0 8 4 N 10
15.10.2017 05:00:00 - - - - - -
15.10.2017 04:00:00 - - - - - -
15.10.2017 03:00:00 - - - - - -
15.10.2017 02:00:00 - - - - - -
15.10.2017 01:00:00 - - - - - -
15.10.2017 00:00:00 - - - - - -
14.10.2017 23:00:00 - - - - - -
14.10.2017 22:00:00 21,0 15,0 2 1 N 10
14.10.2017 21:00:00 21,0 15,0 2 1 NNW 10
14.10.2017 20:00:00 21,0 15,0 4 2 NW 10
14.10.2017 19:00:00 22,0 14,0 4 2 N 10
14.10.2017 18:00:00 23,0 15,0 4 2 ENE 10
14.10.2017 17:00:00 22,0 15,0 8 4 NE 10
14.10.2017 16:00:00 23,0 15,0 8 4 N 10
14.10.2017 15:00:00 22,0 15,0 8 4 NE 10
14.10.2017 14:00:00 23,0 15,0 9 5 NNE 10
14.10.2017 13:00:00 - - - - - -
14.10.2017 12:00:00 23,0 15,0 11 6 NNE 10
14.10.2017 11:00:00 22,0 16,0 11 6 N 10
14.10.2017 10:00:00 22,0 15,0 13 7 N 10
14.10.2017 09:00:00 22,0 15,0 13 7 N 10
14.10.2017 08:00:00 20,0 15,0 9 5 N 10
14.10.2017 07:00:00 21,0 15,0 11 6 N 10
14.10.2017 06:00:00 20,0 15,0 11 6 NNW 10
14.10.2017 05:00:00 - - - - - -
14.10.2017 04:00:00 - - - - - -
14.10.2017 03:00:00 - - - - - -
14.10.2017 02:00:00 - - - - - -
14.10.2017 01:00:00 - - - - - -
14.10.2017 00:00:00 - - - - - -
13.10.2017 23:00:00 - - - - - -
13.10.2017 22:00:00 21,0 15,0 15 8 N 10
13.10.2017 21:00:00 22,0 15,0 16 9 N 10
13.10.2017 20:00:00 21,0 15,0 13 7 N 10
13.10.2017 19:00:00 21,0 15,0 15 8 N 10
13.10.2017 18:00:00 22,0 14,0 16 9 NNW 10
13.10.2017 17:00:00 23,0 15,0 16 9 NNW 10
13.10.2017 16:00:00 23,0 15,0 18 10 N 10
13.10.2017 15:00:00 23,0 15,0 18 10 N 10
13.10.2017 14:00:00 23,0 15,0 18 10 N 10
13.10.2017 13:00:00 23,0 16,0 18 10 N 10
13.10.2017 12:00:00 23,0 15,0 16 9 N 10
13.10.2017 11:00:00 22,0 15,0 18 10 NNW 10
13.10.2017 10:00:00 22,0 16,0 18 10 NNW 10
13.10.2017 09:00:00 21,0 16,0 15 8 NNW 10
13.10.2017 08:00:00 20,0 16,0 13 7 NNW 10
13.10.2017 07:00:00 20,0 16,0 9 5 NNW 10
13.10.2017 06:00:00 20,0 16,0 9 5 NNW 10
13.10.2017 05:00:00 - - - - - -
13.10.2017 04:00:00 - - - - - -
13.10.2017 03:00:00 - - - - - -
13.10.2017 02:00:00 - - - - - -
13.10.2017 01:00:00 - - - - - -
13.10.2017 00:00:00 - - - - - -
12.10.2017 23:00:00 - - - - - -
12.10.2017 22:00:00 22,0 16,0 16 9 NNE 10
12.10.2017 21:00:00 22,0 17,0 21 11 NNE 10
12.10.2017 20:00:00 22,0 17,0 16 9 NE 10
12.10.2017 19:00:00 23,0 17,0 15 8 NE 10
12.10.2017 18:00:00 23,0 17,0 18 10 NE 10
12.10.2017 17:00:00 24,0 16,0 21 11 NE 10
12.10.2017 16:00:00 24,0 15,0 21 11 NNE 10
12.10.2017 15:00:00 24,0 16,0 24 13 NNE 10
12.10.2017 14:00:00 23,0 17,0 22 12 NNE 10
12.10.2017 13:00:00 23,0 17,0 24 13 NNW 10
12.10.2017 12:00:00 23,0 16,0 22 12 N 10
12.10.2017 11:00:00 23,0 14,0 24 13 N 10
12.10.2017 10:00:00 22,0 15,0 24 13 N 10
12.10.2017 09:00:00 22,0 15,0 21 11 N 10
12.10.2017 08:00:00 21,0 15,0 16 9 NNW 10
12.10.2017 07:00:00 21,0 16,0 15 8 NNW 10
12.10.2017 06:00:00 21,0 16,0 16 9 NNW 10
12.10.2017 05:00:00 - - - - - -
12.10.2017 04:00:00 - - - - - -
12.10.2017 03:00:00 - - - - - -
12.10.2017 02:00:00 - - - - - -
12.10.2017 01:00:00 - - - - - -
12.10.2017 00:00:00 - - - - - -
11.10.2017 23:00:00 - - - - - -
11.10.2017 22:00:00 21,0 16,0 8 4 NNW 10
11.10.2017 21:00:00 21,0 15,0 9 5 NNW 10
11.10.2017 20:00:00 22,0 16,0 5 3 NW 10
11.10.2017 19:00:00 22,0 16,0 8 4 NW 10
11.10.2017 18:00:00 23,0 17,0 11 6 N 10
11.10.2017 17:00:00 23,0 17,0 11 6 N 10
11.10.2017 16:00:00 23,0 17,0 9 5 N 10
11.10.2017 15:00:00 23,0 17,0 13 7 NNW 10
11.10.2017 14:00:00 24,0 17,0 11 6 N 10
11.10.2017 13:00:00 23,0 17,0 11 6 NNW 10
11.10.2017 12:00:00 23,0 16,0 15 8 N 10
11.10.2017 11:00:00 23,0 16,0 11 6 N 10
11.10.2017 10:00:00 23,0 17,0 9 5 N 10
11.10.2017 09:00:00 22,0 17,0 9 5 NNW 10
11.10.2017 08:00:00 21,0 17,0 9 5 NNW 10
11.10.2017 07:00:00 21,0 17,0 8 4 NNW 10
11.10.2017 06:00:00 21,0 16,0 8 4 NW 10
11.10.2017 05:00:00 - - - - - -
11.10.2017 04:00:00 - - - - - -
11.10.2017 03:00:00 - - - - - -

tt = Température de l'air
td = dewpoint
ff = Vitesse du vent
dd = Direction du vent
vv = visibility

stations d'obs. à proximité